Time;durP1;ratioP1;P1;durP2;ratioP2;P2;SDS_P1;SDS_P2;PMS_P1;PMS_P2;Temp;Humidity;BMP_temperature;BMP_pressure;BME280_temperature;BME280_humidity;BME280_pressure;Samples;Min_cycle;Max_cycle;Signal;HPM_P1;HPM_P2
2023/05/08 04:06:09;;;;;;;2.77;2.57;;;14.80;99.90;;;;;;5145278;23;21071;-63
2023/05/08 04:08:43;;;;;;;3.63;3.33;;;14.80;99.90;;;;;;4976128;28;20998;-65
2023/05/08 04:11:16;;;;;;;2.90;2.70;;;14.80;99.90;;;;;;4977511;28;20426;-68
2023/05/08 04:13:48;;;;;;;2.80;2.20;;;14.80;99.90;;;;;;4977196;28;20506;-67
2023/05/08 04:16:25;;;;;;;3.13;2.77;;;14.80;99.90;;;;;;4958283;29;20522;-66
2023/05/08 04:18:57;;;;;;;6.13;5.53;;;14.80;99.90;;;;;;4958296;29;20438;-66
2023/05/08 04:21:24;;;;;;;4.53;3.43;;;14.80;99.90;;;;;;4958417;29;20397;-65
2023/05/08 04:23:52;;;;;;;4.03;3.63;;;14.80;99.90;;;;;;4957730;28;20407;-65
2023/05/08 04:26:18;;;;;;;3.63;2.67;;;14.80;99.90;;;;;;4940791;29;20914;-68
2023/05/08 04:28:48;;;;;;;4.00;3.70;;;14.80;99.90;;;;;;4958218;29;20466;-68
2023/05/08 04:31:15;;;;;;;2.83;2.67;;;14.80;99.90;;;;;;4958145;29;20666;-67
2023/05/08 04:33:43;;;;;;;3.20;3.00;;;14.80;99.90;;;;;;4957344;29;20424;-65
2023/05/08 04:36:13;;;;;;;3.47;3.10;;;14.80;99.90;;;;;;4939649;29;20989;-67
2023/05/08 04:38:39;;;;;;;3.97;3.57;;;14.80;99.90;;;;;;4955942;29;20404;-65
2023/05/08 04:41:05;;;;;;;4.00;3.60;;;14.90;99.90;;;;;;4955900;29;20778;-67
2023/05/08 04:43:31;;;;;;;3.27;2.97;;;14.90;99.90;;;;;;4955915;29;20491;-67
2023/05/08 04:45:57;;;;;;;3.33;3.10;;;15.00;99.90;;;;;;4956078;28;20936;-66
2023/05/08 04:48:23;;;;;;;4.20;3.80;;;15.00;99.90;;;;;;4956159;29;20165;-66
2023/05/08 04:50:49;;;;;;;3.70;3.40;;;15.00;99.90;;;;;;4956169;29;20177;-67
2023/05/08 04:53:15;;;;;;;4.03;3.53;;;15.10;99.90;;;;;;4957125;29;20419;-69
2023/05/08 04:55:40;;;;;;;2.90;2.67;;;15.10;99.90;;;;;;4957797;28;20201;-67
2023/05/08 04:58:06;;;;;;;3.67;3.37;;;15.10;99.90;;;;;;4943161;29;20230;-67
2023/05/08 05:00:34;;;;;;;4.90;4.40;;;15.20;99.90;;;;;;4938623;29;20177;-63
2023/05/08 05:02:59;;;;;;;4.30;4.00;;;15.20;99.90;;;;;;4937962;29;20174;-68
2023/05/08 05:05:25;;;;;;;4.40;3.87;;;15.20;99.90;;;;;;4938256;29;20451;-68
2023/05/08 05:07:50;;;;;;;4.03;3.70;;;15.20;99.90;;;;;;4938585;29;20181;-67
2023/05/08 05:10:16;;;;;;;3.83;3.53;;;15.20;99.90;;;;;;4920316;29;20212;-69
2023/05/08 05:12:42;;;;;;;3.40;3.20;;;15.20;99.90;;;;;;4938075;29;20525;-67
2023/05/08 05:15:08;;;;;;;4.70;3.40;;;15.20;99.90;;;;;;4937572;29;20524;-66
2023/05/08 05:17:34;;;;;;;4.20;3.37;;;15.20;99.90;;;;;;4937267;29;20201;-65
2023/05/08 05:19:59;;;;;;;2.63;2.43;;;15.20;99.90;;;;;;4937822;29;20414;-64
2023/05/08 05:22:25;;;;;;;4.43;3.10;;;15.20;99.90;;;;;;4938036;29;20408;-63
2023/05/08 05:24:51;;;;;;;3.70;3.33;;;15.20;99.90;;;;;;4937468;29;20272;-64
2023/05/08 05:27:16;;;;;;;6.80;3.80;;;15.20;99.90;;;;;;4937688;29;20170;-66
2023/05/08 05:29:42;;;;;;;3.23;2.93;;;15.10;99.90;;;;;;4938123;29;20644;-63
2023/05/08 05:32:10;;;;;;;4.23;3.83;;;15.10;99.90;;;;;;4937769;29;20174;-65
2023/05/08 05:34:36;;;;;;;4.93;4.10;;;15.10;99.90;;;;;;4937344;29;20213;-64
2023/05/08 05:37:01;;;;;;;4.40;3.67;;;15.10;99.90;;;;;;4949654;29;20984;-65
2023/05/08 05:39:27;;;;;;;3.37;3.07;;;15.10;99.90;;;;;;4956718;29;20318;-65
2023/05/08 05:41:52;;;;;;;3.50;3.20;;;15.10;99.90;;;;;;4956284;29;20169;-67
2023/05/08 05:44:18;;;;;;;4.03;3.63;;;15.10;99.90;;;;;;4938699;29;20228;-64
2023/05/08 05:46:44;;;;;;;3.43;3.13;;;15.20;99.90;;;;;;4956710;29;20619;-63
2023/05/08 05:49:10;;;;;;;3.60;3.33;;;15.20;99.90;;;;;;4956658;29;20172;-65
2023/05/08 05:51:36;;;;;;;4.17;3.77;;;15.10;99.90;;;;;;4956548;29;20815;-65
2023/05/08 05:54:02;;;;;;;3.10;2.90;;;15.10;99.90;;;;;;4956234;29;20416;-65
2023/05/08 05:56:27;;;;;;;3.87;2.93;;;15.10;99.90;;;;;;4956476;29;20188;-65
2023/05/08 05:58:53;;;;;;;3.67;3.37;;;15.10;99.90;;;;;;4955020;29;20415;-64
2023/05/08 06:01:19;;;;;;;3.53;3.23;;;15.00;99.90;;;;;;4956265;29;20678;-65
2023/05/08 06:03:44;;;;;;;5.10;3.70;;;15.00;99.90;;;;;;4956009;29;20187;-65
2023/05/08 06:06:10;;;;;;;4.87;3.80;;;15.00;99.90;;;;;;4955998;29;20640;-64
2023/05/08 06:08:35;;;;;;;2.70;2.53;;;15.00;99.90;;;;;;4956500;29;20181;-64
2023/05/08 06:11:01;;;;;;;4.17;3.67;;;15.00;99.90;;;;;;4956265;29;20176;-65
2023/05/08 06:13:27;;;;;;;3.70;3.40;;;15.10;99.90;;;;;;4956030;29;20177;-65
2023/05/08 06:15:56;;;;;;;4.10;3.80;;;15.10;99.90;;;;;;4956163;29;20339;-64
2023/05/08 06:18:22;;;;;;;3.90;3.60;;;15.20;99.90;;;;;;4955755;29;20908;-64
2023/05/08 06:20:47;;;;;;;5.57;4.10;;;15.20;99.90;;;;;;4956020;29;20409;-64
2023/05/08 06:23:13;;;;;;;4.20;3.80;;;15.30;99.90;;;;;;4954329;29;20417;-63
2023/05/08 06:25:39;;;;;;;4.50;4.10;;;15.30;99.90;;;;;;4955752;29;20650;-64
2023/05/08 06:28:06;;;;;;;5.03;4.40;;;15.40;99.90;;;;;;4955822;28;20208;-64
2023/05/08 06:30:33;;;;;;;5.70;5.13;;;15.40;99.90;;;;;;4955759;29;20635;-64
2023/05/08 06:32:58;;;;;;;4.63;4.23;;;15.40;99.90;;;;;;4955558;29;20503;-64
2023/05/08 06:35:24;;;;;;;5.00;4.60;;;15.40;99.90;;;;;;4955674;29;20903;-63
2023/05/08 06:37:49;;;;;;;4.37;3.90;;;15.40;99.90;;;;;;4955836;29;20237;-63
2023/05/08 06:40:15;;;;;;;5.87;5.30;;;15.40;99.90;;;;;;4955730;29;20165;-64
2023/05/08 06:42:41;;;;;;;4.60;3.73;;;15.50;99.90;;;;;;4955697;29;20516;-63
2023/05/08 06:45:08;;;;;;;5.90;5.33;;;15.50;99.90;;;;;;4956087;28;20622;-65
2023/05/08 06:47:33;;;;;;;3.50;3.20;;;15.60;99.90;;;;;;4954678;28;20185;-63
2023/05/08 06:49:59;;;;;;;4.60;4.20;;;15.60;99.90;;;;;;4955799;28;20390;-64
2023/05/08 06:52:25;;;;;;;5.00;3.93;;;15.60;99.90;;;;;;4955523;28;20581;-62
2023/05/08 06:54:51;;;;;;;5.03;4.63;;;15.70;99.90;;;;;;4954958;28;20528;-64
2023/05/08 06:57:16;;;;;;;3.90;3.60;;;15.70;99.90;;;;;;4955603;29;20173;-62
2023/05/08 06:59:42;;;;;;;3.30;3.00;;;15.80;99.90;;;;;;4955661;29;20332;-63
2023/05/08 07:02:09;;;;;;;4.03;3.73;;;15.90;99.90;;;;;;4954897;29;20263;-63
2023/05/08 07:04:35;;;;;;;3.80;3.50;;;16.00;99.90;;;;;;4954957;28;20440;-64
2023/05/08 07:07:01;;;;;;;3.07;2.87;;;16.10;99.90;;;;;;4955170;29;20441;-64
2023/05/08 07:09:27;;;;;;;5.07;3.40;;;16.20;99.90;;;;;;4955384;29;20481;-62
2023/05/08 07:11:53;;;;;;;4.00;3.60;;;16.30;99.90;;;;;;4955504;29;20519;-63
2023/05/08 07:14:18;;;;;;;2.50;2.30;;;16.30;99.90;;;;;;4954883;28;20932;-67
2023/05/08 07:16:44;;;;;;;3.43;3.13;;;16.40;99.90;;;;;;4955042;29;20297;-63
2023/05/08 07:19:10;;;;;;;4.30;3.40;;;16.40;99.90;;;;;;4955153;29;20173;-63
2023/05/08 07:21:36;;;;;;;3.27;2.97;;;16.50;99.90;;;;;;4955313;29;20282;-65
2023/05/08 07:24:01;;;;;;;2.53;2.20;;;16.50;99.90;;;;;;4954689;28;20423;-61
2023/05/08 07:26:27;;;;;;;2.80;2.60;;;16.60;99.90;;;;;;4956902;28;20210;-62
2023/05/08 07:28:53;;;;;;;3.70;3.40;;;16.80;99.90;;;;;;4955165;28;20203;-62
2023/05/08 07:31:19;;;;;;;2.70;2.50;;;16.90;99.90;;;;;;4955167;28;20651;-62
2023/05/08 07:33:45;;;;;;;3.33;3.03;;;17.00;99.90;;;;;;4954699;28;20609;-62
2023/05/08 07:36:11;;;;;;;3.30;3.10;;;17.10;99.90;;;;;;4957793;28;20464;-62
2023/05/08 07:38:37;;;;;;;4.13;3.77;;;17.10;99.90;;;;;;4960812;28;20440;-62
2023/05/08 07:41:04;;;;;;;4.80;3.70;;;17.10;99.90;;;;;;4958447;28;20414;-62
2023/05/08 07:43:32;;;;;;;3.60;3.30;;;17.10;99.90;;;;;;4958678;28;20452;-62
2023/05/08 07:45:58;;;;;;;4.50;4.10;;;17.20;99.90;;;;;;4974283;28;21021;-63
2023/05/08 07:48:24;;;;;;;3.40;3.10;;;17.20;99.90;;;;;;4978177;28;20424;-62
2023/05/08 07:50:49;;;;;;;3.10;2.50;;;17.20;99.90;;;;;;4977732;28;20168;-63
2023/05/08 07:53:16;;;;;;;3.60;3.30;;;17.30;99.90;;;;;;4969385;28;21002;-62
2023/05/08 07:55:41;;;;;;;3.60;3.30;;;17.30;99.90;;;;;;4964106;28;20264;-62
2023/05/08 07:58:07;;;;;;;4.47;4.07;;;17.40;99.90;;;;;;4964578;28;20419;-62
2023/05/08 08:00:32;;;;;;;4.30;3.60;;;17.40;99.90;;;;;;4977713;28;20181;-62
2023/05/08 08:02:58;;;;;;;4.17;3.23;;;17.50;99.90;;;;;;4975467;28;20715;-59
2023/05/08 08:05:24;;;;;;;2.67;2.47;;;17.50;99.90;;;;;;4966577;28;20566;-62
2023/05/08 08:07:50;;;;;;;3.20;3.00;;;17.60;99.90;;;;;;4972573;28;20184;-61
2023/05/08 08:10:15;;;;;;;4.43;3.30;;;17.70;99.90;;;;;;4977899;28;20184;-62
2023/05/08 08:12:41;;;;;;;3.40;3.10;;;17.60;99.90;;;;;;4978020;28;20211;-63
2023/05/08 08:15:07;;;;;;;4.90;4.50;;;17.50;99.90;;;;;;4959964;28;20295;-62
2023/05/08 08:17:32;;;;;;;4.20;2.90;;;17.40;99.90;;;;;;4958646;29;20601;-62
2023/05/08 08:19:58;;;;;;;4.13;3.77;;;17.50;99.90;;;;;;4958308;29;20408;-63
2023/05/08 08:22:24;;;;;;;4.03;3.63;;;17.50;99.90;;;;;;4950363;28;20254;-62
2023/05/08 08:24:50;;;;;;;3.50;3.20;;;17.70;99.90;;;;;;4975828;28;20740;-62
2023/05/08 08:27:16;;;;;;;3.67;3.37;;;17.70;99.90;;;;;;4977954;28;20483;-62
2023/05/08 08:29:41;;;;;;;5.03;4.53;;;17.70;99.90;;;;;;4967356;28;20528;-62
2023/05/08 08:32:07;;;;;;;4.47;3.47;;;17.80;99.90;;;;;;4958329;29;20263;-66
2023/05/08 08:34:33;;;;;;;4.10;3.80;;;17.80;99.90;;;;;;4957924;28;20193;-66
2023/05/08 08:36:59;;;;;;;4.20;3.80;;;17.90;99.90;;;;;;4958669;28;20212;-65
2023/05/08 08:39:24;;;;;;;5.07;3.97;;;18.00;99.90;;;;;;4958178;29;20413;-66
2023/05/08 08:41:50;;;;;;;4.93;4.07;;;18.00;99.90;;;;;;4959127;28;20173;-65
2023/05/08 08:44:16;;;;;;;3.73;3.23;;;18.00;99.90;;;;;;4957817;28;20220;-63
2023/05/08 08:46:49;;;;;;;4.07;3.77;;;17.90;99.90;;;;;;4958349;28;20204;-63
2023/05/08 08:49:19;;;;;;;3.33;3.03;;;17.90;99.90;;;;;;4970524;28;20175;-64
2023/05/08 08:52:10;;;;;;;4.30;3.97;;;17.90;99.90;;;;;;4975821;28;20411;-64
2023/05/08 08:54:37;;;;;;;4.10;3.77;;;17.80;99.90;;;;;;4976684;28;20515;-64
2023/05/08 08:57:08;;;;;;;4.07;3.57;;;17.70;99.90;;;;;;4958518;28;20546;-64
2023/05/08 08:59:37;;;;;;;4.43;4.03;;;17.70;99.90;;;;;;4959743;28;20405;-65
2023/05/08 09:02:11;;;;;;;4.50;4.10;;;17.70;99.90;;;;;;4943701;28;20491;-65
2023/05/08 09:04:37;;;;;;;7.43;4.17;;;17.60;99.90;;;;;;4970844;28;20447;-65
2023/05/08 09:07:04;;;;;;;5.77;4.80;;;17.60;99.90;;;;;;4961657;28;20444;-65
2023/05/08 09:09:34;;;;;;;5.87;3.73;;;17.60;99.90;;;;;;4957093;28;20903;-65
2023/05/08 09:12:01;;;;;;;3.30;3.00;;;17.50;99.90;;;;;;4956876;28;20418;-65
2023/05/08 09:14:26;;;;;;;3.87;3.57;;;17.60;99.90;;;;;;4956690;28;20443;-64
2023/05/08 09:16:55;;;;;;;5.63;5.10;;;17.60;99.90;;;;;;4956626;29;20452;-67
2023/05/08 09:19:21;;;;;;;4.97;4.53;;;17.70;99.90;;;;;;4956457;28;20176;-64
2023/05/08 09:21:48;;;;;;;4.33;3.90;;;17.80;99.90;;;;;;4952924;28;20440;-68
2023/05/08 09:24:13;;;;;;;11.30;4.27;;;17.90;99.90;;;;;;4957788;28;20515;-67
2023/05/08 09:26:40;;;;;;;5.93;3.00;;;17.90;99.90;;;;;;4960599;28;20420;-67
2023/05/08 09:29:11;;;;;;;4.30;3.90;;;18.00;99.90;;;;;;4975257;28;20176;-67
2023/05/08 09:31:39;;;;;;;4.07;3.60;;;18.00;99.90;;;;;;4956396;28;20970;-67
2023/05/08 09:34:07;;;;;;;4.43;4.03;;;18.00;99.90;;;;;;4959260;28;20476;-67
2023/05/08 09:36:33;;;;;;;3.60;3.27;;;18.20;99.90;;;;;;4939136;29;20603;-66
2023/05/08 09:39:00;;;;;;;3.83;3.43;;;18.20;99.90;;;;;;4960570;28;20398;-65
2023/05/08 09:41:26;;;;;;;3.60;3.30;;;18.30;99.90;;;;;;4976407;28;20889;-65
2023/05/08 09:44:03;;;;;;;4.03;3.73;;;18.40;99.90;;;;;;4972053;28;20438;-65
2023/05/08 09:46:29;;;;;;;6.10;3.20;;;18.60;99.90;;;;;;4969679;28;20424;-65
2023/05/08 09:48:56;;;;;;;3.40;3.20;;;18.70;99.90;;;;;;4940422;29;20435;-63
2023/05/08 09:51:24;;;;;;;4.03;3.70;;;18.90;99.90;;;;;;4960237;28;20435;-64
2023/05/08 09:53:51;;;;;;;3.80;3.47;;;18.90;99.90;;;;;;4957798;28;20405;-63
2023/05/08 09:56:38;;;;;;;6.50;3.40;;;19.00;99.90;;;;;;4965506;28;20456;-63
2023/05/08 09:59:22;;;;;;;5.07;4.67;;;19.10;99.90;;;;;;4956137;29;20824;-66
2023/05/08 10:01:48;;;;;;;3.43;3.13;;;19.20;99.90;;;;;;4956500;28;20475;-66
2023/05/08 10:04:14;;;;;;;3.37;3.07;;;19.30;99.90;;;;;;4955938;28;20452;-62
2023/05/08 10:06:40;;;;;;;3.97;3.67;;;19.50;99.90;;;;;;4956083;29;20207;-64
2023/05/08 10:09:11;;;;;;;4.50;4.10;;;19.50;99.90;;;;;;4974241;28;20420;-63
2023/05/08 10:11:38;;;;;;;4.00;3.60;;;19.70;99.90;;;;;;4958119;28;20415;-65
2023/05/08 10:14:04;;;;;;;2.73;2.53;;;19.70;99.90;;;;;;4975059;28;20497;-65
2023/05/08 10:16:31;;;;;;;3.00;2.80;;;19.80;99.90;;;;;;4959165;28;20530;-64
2023/05/08 10:19:04;;;;;;;3.53;3.23;;;19.90;99.90;;;;;;4956357;29;20212;-64
2023/05/08 10:21:35;;;;;;;4.37;3.60;;;20.00;99.90;;;;;;4956009;28;20383;-66
2023/05/08 10:24:04;;;;;;;3.50;3.20;;;20.00;99.90;;;;;;4955468;28;20506;-64
2023/05/08 10:26:32;;;;;;;4.63;4.03;;;20.00;99.90;;;;;;4966549;28;20430;-64
2023/05/08 10:29:03;;;;;;;3.83;3.43;;;20.20;99.90;;;;;;4956177;29;20867;-64
2023/05/08 10:31:33;;;;;;;2.63;2.43;;;20.30;99.90;;;;;;4956926;28;20426;-64
2023/05/08 10:34:01;;;;;;;3.10;2.90;;;20.40;99.90;;;;;;4955372;28;20514;-64
2023/05/08 10:36:28;;;;;;;3.20;3.00;;;20.40;99.90;;;;;;4948725;28;20459;-64
2023/05/08 10:38:57;;;;;;;2.83;2.60;;;20.40;99.90;;;;;;4957117;28;20390;-64
2023/05/08 10:41:24;;;;;;;3.23;2.83;;;20.50;99.90;;;;;;4963707;28;20584;-66
2023/05/08 10:43:52;;;;;;;2.83;2.60;;;20.50;99.90;;;;;;4974579;28;20734;-63
2023/05/08 10:46:29;;;;;;;3.30;3.00;;;20.70;99.90;;;;;;4963332;28;20827;-64
2023/05/08 10:49:32;;;;;;;3.60;2.70;;;20.60;99.90;;;;;;4955809;29;20422;-63
2023/05/08 10:52:17;;;;;;;3.33;3.07;;;20.40;99.90;;;;;;4936727;29;20505;-63
2023/05/08 10:55:05;;;;;;;3.50;3.03;;;20.10;99.90;;;;;;4938887;29;20444;-64
2023/05/08 10:57:30;;;;;;;3.87;3.33;;;19.80;99.90;;;;;;4948554;29;20411;-65
2023/05/08 10:59:56;;;;;;;3.07;2.33;;;19.70;99.90;;;;;;4960507;28;20390;-64
2023/05/08 11:02:27;;;;;;;3.90;3.20;;;19.70;99.90;;;;;;4974733;28;20412;-65
2023/05/08 11:04:53;;;;;;;5.73;3.73;;;19.80;99.90;;;;;;4956894;28;20196;-65
2023/05/08 11:07:18;;;;;;;3.47;3.17;;;19.80;99.90;;;;;;4972998;28;20434;-66
2023/05/08 11:09:47;;;;;;;4.20;3.83;;;19.80;99.90;;;;;;4959345;28;20169;-65
2023/05/08 11:12:19;;;;;;;4.43;3.77;;;19.80;99.90;;;;;;4955149;28;20587;-66
2023/05/08 11:15:03;;;;;;;7.60;6.20;;;19.60;99.90;;;;;;4964006;28;20440;-66
2023/05/08 11:17:29;;;;;;;4.33;3.70;;;19.40;99.90;;;;;;4957030;28;20405;-67
2023/05/08 11:19:57;;;;;;;3.80;3.50;;;19.30;99.90;;;;;;4969549;28;20927;-67
2023/05/08 11:22:34;;;;;;;5.20;4.53;;;19.20;99.90;;;;;;4955041;28;20173;-66
2023/05/08 11:25:02;;;;;;;4.27;3.60;;;19.10;99.90;;;;;;4955771;28;21025;-67
2023/05/08 11:27:40;;;;;;;4.27;3.87;;;19.10;99.90;;;;;;4955353;29;20907;-67
2023/05/08 11:30:33;;;;;;;4.33;3.97;;;19.00;99.90;;;;;;4955300;29;20375;-66
2023/05/08 11:33:05;;;;;;;5.17;3.97;;;19.00;99.90;;;;;;4956401;28;20416;-66
2023/05/08 11:35:49;;;;;;;4.43;4.00;;;19.10;99.90;;;;;;4974324;28;20980;-65
2023/05/08 11:38:21;;;;;;;5.10;3.70;;;19.20;99.90;;;;;;4974544;28;20483;-66
2023/05/08 11:40:59;;;;;;;5.30;4.80;;;19.30;99.90;;;;;;4962618;28;20421;-66
2023/05/08 11:43:47;;;;;;;5.07;4.67;;;19.40;99.90;;;;;;4955762;28;20418;-66
2023/05/08 11:46:15;;;;;;;3.90;3.60;;;19.40;99.90;;;;;;4953075;29;20847;-68
2023/05/08 11:48:42;;;;;;;4.40;4.10;;;19.70;99.90;;;;;;4954584;28;20440;-67
2023/05/08 11:51:08;;;;;;;4.17;3.87;;;19.80;99.90;;;;;;4941552;29;20425;-68
2023/05/08 11:53:35;;;;;;;5.03;4.50;;;19.90;99.90;;;;;;4954211;28;20441;-66
2023/05/08 11:56:02;;;;;;;4.33;4.00;;;20.00;99.90;;;;;;4955539;28;20221;-68
2023/05/08 11:58:28;;;;;;;5.83;5.23;;;20.10;99.90;;;;;;4935498;29;20429;-65
2023/05/08 12:00:54;;;;;;;4.07;3.77;;;20.20;99.90;;;;;;4934467;29;20491;-69
2023/05/08 12:03:24;;;;;;;4.03;3.63;;;20.30;99.90;;;;;;4935150;29;20420;-67
2023/05/08 12:05:55;;;;;;;4.53;4.13;;;20.50;99.90;;;;;;4934230;29;20452;-65
2023/05/08 12:08:20;;;;;;;4.67;4.27;;;20.70;99.90;;;;;;4973418;28;20555;-68
2023/05/08 12:10:52;;;;;;;4.50;4.10;;;20.80;99.90;;;;;;4973999;28;20451;-65
2023/05/08 12:13:23;;;;;;;4.97;4.40;;;20.80;99.90;;;;;;4973525;28;20185;-66
2023/05/08 12:15:54;;;;;;;5.23;4.73;;;21.00;99.90;;;;;;4971622;28;20489;-66
2023/05/08 12:18:21;;;;;;;3.87;3.57;;;21.10;99.90;;;;;;4956679;28;20459;-66
2023/05/08 12:20:55;;;;;;;4.73;4.23;;;21.10;99.90;;;;;;4973835;28;20507;-67
2023/05/08 12:23:22;;;;;;;2.97;2.70;;;21.30;99.90;;;;;;4955976;28;20426;-68
2023/05/08 12:25:52;;;;;;;4.07;3.10;;;21.40;99.90;;;;;;4974588;28;20398;-67
2023/05/08 12:28:17;;;;;;;4.90;3.80;;;21.70;99.90;;;;;;4968283;28;20485;-66
2023/05/08 12:30:43;;;;;;;4.63;4.13;;;22.00;99.90;;;;;;4973147;28;20402;-67
2023/05/08 12:33:09;;;;;;;4.20;3.80;;;22.10;99.90;;;;;;4957643;29;20279;-69
2023/05/08 12:35:37;;;;;;;3.70;3.40;;;22.00;99.90;;;;;;4957991;28;20223;-64
2023/05/08 12:38:05;;;;;;;3.53;3.23;;;21.90;99.90;;;;;;4957572;28;20418;-65
2023/05/08 12:40:39;;;;;;;3.57;3.27;;;21.90;99.90;;;;;;4957972;28;20453;-65
2023/05/08 12:43:05;;;;;;;4.50;3.80;;;21.80;99.90;;;;;;4963298;28;20777;-66
2023/05/08 12:45:33;;;;;;;4.13;3.40;;;21.80;99.90;;;;;;4977182;28;20471;-65
2023/05/08 12:48:04;;;;;;;5.03;4.63;;;21.90;99.90;;;;;;4977027;28;20184;-64
2023/05/08 12:50:35;;;;;;;4.07;3.47;;;22.00;99.90;;;;;;4957135;28;20403;-62
2023/05/08 12:53:08;;;;;;;3.73;3.43;;;21.90;99.90;;;;;;4940112;29;20479;-64
2023/05/08 12:55:37;;;;;;;4.73;4.33;;;21.80;99.90;;;;;;4968235;28;20829;-64
2023/05/08 12:58:08;;;;;;;5.77;4.27;;;21.80;99.90;;;;;;4976402;28;20462;-64
2023/05/08 13:00:43;;;;;;;3.87;3.40;;;21.70;99.90;;;;;;4976898;28;20415;-64
2023/05/08 13:03:11;;;;;;;4.57;4.17;;;21.60;99.90;;;;;;4976137;28;20461;-65
2023/05/08 13:05:41;;;;;;;5.27;4.77;;;21.60;99.90;;;;;;4976161;28;20460;-65
2023/05/08 13:08:09;;;;;;;3.97;3.60;;;21.40;99.90;;;;;;4974983;28;20516;-65
2023/05/08 13:10:51;;;;;;;5.10;4.70;;;21.20;99.90;;;;;;4957035;29;20428;-64
2023/05/08 13:13:22;;;;;;;4.20;3.90;;;21.20;99.90;;;;;;4956830;29;20468;-65
2023/05/08 13:15:48;;;;;;;5.57;5.07;;;21.10;99.90;;;;;;4957091;28;20520;-67
2023/05/08 13:18:15;;;;;;;4.53;4.13;;;21.00;99.90;;;;;;4956920;29;20481;-66
2023/05/08 13:20:41;;;;;;;4.93;3.80;;;20.90;99.90;;;;;;4956799;29;20424;-65
2023/05/08 13:23:08;;;;;;;3.50;3.30;;;20.80;99.90;;;;;;4956420;28;20923;-64
2023/05/08 13:25:35;;;;;;;4.37;3.97;;;20.70;99.90;;;;;;4957033;28;20427;-65
2023/05/08 13:28:00;;;;;;;4.47;4.07;;;20.50;99.90;;;;;;4956978;29;20383;-64
2023/05/08 13:30:26;;;;;;;3.17;2.77;;;20.50;99.90;;;;;;4956641;29;20408;-65
2023/05/08 13:32:52;;;;;;;4.03;3.70;;;20.40;99.90;;;;;;4956516;29;20646;-66
2023/05/08 13:35:19;;;;;;;4.67;4.20;;;20.40;99.90;;;;;;4955827;28;20547;-64
2023/05/08 13:37:45;;;;;;;4.90;4.23;;;20.30;99.90;;;;;;4958790;28;20420;-65
2023/05/08 13:40:11;;;;;;;3.93;3.53;;;20.20;99.90;;;;;;4944057;29;20396;-65
2023/05/08 13:42:37;;;;;;;4.00;3.70;;;20.10;99.90;;;;;;4956249;29;20403;-66
2023/05/08 13:45:07;;;;;;;3.90;3.30;;;20.10;99.90;;;;;;4938690;29;20944;-65
2023/05/08 13:47:33;;;;;;;4.60;3.73;;;20.20;99.90;;;;;;4955043;29;20587;-64
2023/05/08 13:49:58;;;;;;;3.93;3.50;;;20.20;99.90;;;;;;4956061;29;20395;-64
2023/05/08 13:52:24;;;;;;;4.40;3.50;;;20.30;99.90;;;;;;4955908;28;20849;-64
2023/05/08 13:54:50;;;;;;;4.37;3.87;;;20.30;99.90;;;;;;4938180;29;20203;-65
2023/05/08 13:57:16;;;;;;;4.73;4.07;;;20.30;99.90;;;;;;4938685;29;20223;-65
2023/05/08 13:59:41;;;;;;;4.47;4.10;;;20.20;99.90;;;;;;4955902;29;20477;-64
2023/05/08 14:02:07;;;;;;;4.83;4.43;;;20.20;99.90;;;;;;4956241;29;20177;-65
2023/05/08 14:04:33;;;;;;;4.17;3.77;;;20.10;99.90;;;;;;4955539;28;20264;-64
2023/05/08 14:06:59;;;;;;;5.00;4.53;;;20.00;99.90;;;;;;4956543;28;20184;-64
2023/05/08 14:09:25;;;;;;;3.73;3.43;;;20.00;99.90;;;;;;4975058;28;20603;-64
2023/05/08 14:11:51;;;;;;;4.97;4.30;;;19.90;99.90;;;;;;4975079;28;20438;-64
2023/05/08 14:14:16;;;;;;;4.10;3.80;;;19.70;99.90;;;;;;4974551;28;20450;-64
2023/05/08 14:16:42;;;;;;;3.97;3.63;;;19.60;99.90;;;;;;4974803;28;20204;-64
2023/05/08 14:19:08;;;;;;;4.40;4.07;;;19.70;99.90;;;;;;4975017;28;20247;-65
2023/05/08 14:21:33;;;;;;;4.07;3.70;;;19.70;99.90;;;;;;4962040;28;20176;-64
2023/05/08 14:24:00;;;;;;;4.10;3.73;;;19.60;99.90;;;;;;4955074;28;20261;-63
2023/05/08 14:26:25;;;;;;;4.97;4.47;;;19.60;99.90;;;;;;4955436;29;20404;-64
2023/05/08 14:28:51;;;;;;;3.70;3.43;;;19.50;99.90;;;;;;4955825;29;20419;-64
2023/05/08 14:31:16;;;;;;;5.37;4.63;;;19.40;99.90;;;;;;4938490;29;20658;-65
2023/05/08 14:33:42;;;;;;;4.10;3.80;;;19.40;99.90;;;;;;4955174;29;20169;-64
2023/05/08 14:36:08;;;;;;;3.20;2.90;;;19.30;99.90;;;;;;4954898;28;20629;-65
2023/05/08 14:38:34;;;;;;;3.50;3.20;;;19.40;99.90;;;;;;4956162;28;20255;-66
2023/05/08 14:40:59;;;;;;;5.07;4.40;;;19.40;99.90;;;;;;4956304;28;20508;-67
2023/05/08 14:43:25;;;;;;;4.80;4.40;;;19.40;99.90;;;;;;4955176;29;20165;-64
2023/05/08 14:45:50;;;;;;;4.07;3.67;;;19.50;99.90;;;;;;4955186;28;20201;-65
2023/05/08 14:48:16;;;;;;;4.43;4.13;;;19.40;99.90;;;;;;4954770;28;20180;-70
2023/05/08 14:50:42;;;;;;;4.00;3.20;;;19.40;99.90;;;;;;4962007;28;20176;-67
2023/05/08 14:53:07;;;;;;;4.10;3.80;;;19.50;99.90;;;;;;4954613;29;20178;-66
2023/05/08 14:55:33;;;;;;;4.60;4.20;;;19.50;99.90;;;;;;4955143;28;20556;-65
2023/05/08 14:57:58;;;;;;;4.67;4.23;;;19.40;99.90;;;;;;4955300;29;20520;-65
2023/05/08 15:00:24;;;;;;;4.50;3.93;;;19.30;99.90;;;;;;4938744;28;20180;-68
2023/05/08 15:02:50;;;;;;;4.70;4.40;;;19.10;99.90;;;;;;4974177;28;20206;-64
2023/05/08 15:05:16;;;;;;;4.43;4.03;;;18.90;99.90;;;;;;4973361;28;20253;-66
2023/05/08 15:07:41;;;;;;;6.70;4.17;;;18.60;99.90;;;;;;4974722;28;20187;-71
2023/05/08 15:10:07;;;;;;;6.67;4.40;;;18.30;99.90;;;;;;4974386;28;20418;-72
2023/05/08 15:12:33;;;;;;;4.17;3.77;;;17.90;99.90;;;;;;4955190;28;20177;-72
2023/05/08 15:14:59;;;;;;;5.10;4.60;;;17.70;99.90;;;;;;4961720;28;20477;-72
2023/05/08 15:17:25;;;;;;;6.70;5.87;;;17.50;99.90;;;;;;4959212;28;20201;-70
2023/05/08 15:19:50;;;;;;;5.60;5.10;;;17.30;99.90;;;;;;4958894;28;20196;-70
2023/05/08 15:22:16;;;;;;;7.37;5.70;;;17.20;99.90;;;;;;4965402;28;20177;-70
2023/05/08 15:24:42;;;;;;;7.30;5.67;;;17.20;99.90;;;;;;4973531;28;20210;-71
2023/05/08 15:27:08;;;;;;;6.37;5.40;;;17.10;99.90;;;;;;4955691;28;20441;-72
2023/05/08 15:29:35;;;;;;;6.17;5.57;;;17.10;99.90;;;;;;4937658;29;20421;-71
2023/05/08 15:32:01;;;;;;;8.30;4.90;;;17.20;99.90;;;;;;4964263;28;20429;-72
2023/05/08 15:34:26;;;;;;;7.20;5.57;;;17.20;99.90;;;;;;4971946;28;20539;-70
2023/05/08 15:36:52;;;;;;;7.20;5.70;;;17.30;99.90;;;;;;4952296;28;20675;-72
2023/05/08 15:39:17;;;;;;;7.00;6.30;;;17.30;99.90;;;;;;4937760;29;20547;-72
2023/05/08 15:41:43;;;;;;;9.77;7.40;;;17.40;99.90;;;;;;4957839;28;20272;-71
2023/05/08 15:44:09;;;;;;;7.23;6.53;;;17.40;99.90;;;;;;4969826;28;20707;-69
2023/05/08 15:46:35;;;;;;;5.83;5.23;;;17.40;99.90;;;;;;4958040;28;20314;-66
2023/05/08 15:49:00;;;;;;;7.27;6.20;;;17.50;99.90;;;;;;4966208;28;20244;-66
2023/05/08 15:51:26;;;;;;;7.47;5.70;;;17.50;99.90;;;;;;4954359;29;20190;-67
2023/05/08 15:53:51;;;;;;;7.67;5.77;;;17.50;99.90;;;;;;4954060;28;20171;-70
2023/05/08 15:56:21;;;;;;;5.63;4.93;;;17.50;99.90;;;;;;4955787;28;20222;-71
2023/05/08 15:58:47;;;;;;;6.63;6.03;;;17.60;99.90;;;;;;4964200;28;20177;-70
2023/05/08 16:01:12;;;;;;;7.30;5.70;;;17.60;99.90;;;;;;4963400;28;20425;-69
2023/05/08 16:03:38;;;;;;;7.33;6.50;;;17.70;99.90;;;;;;4971545;28;20179;-69
2023/05/08 16:06:04;;;;;;;7.03;6.03;;;17.70;99.90;;;;;;4977194;28;20212;-69
2023/05/08 16:08:29;;;;;;;6.17;5.60;;;17.70;99.90;;;;;;4958345;29;20176;-72
2023/05/08 16:10:55;;;;;;;5.43;5.03;;;17.70;99.90;;;;;;4958295;29;20513;-68
2023/05/08 16:13:21;;;;;;;5.60;5.07;;;17.70;99.90;;;;;;4957908;29;20187;-66
2023/05/08 16:15:46;;;;;;;4.70;4.30;;;17.80;99.90;;;;;;4958071;28;20210;-67
2023/05/08 16:18:12;;;;;;;7.53;4.60;;;17.80;99.90;;;;;;4940782;28;20266;-68
2023/05/08 16:20:41;;;;;;;6.00;5.20;;;17.80;99.90;;;;;;4977377;28;20175;-67
2023/05/08 16:23:07;;;;;;;5.17;4.40;;;17.80;99.90;;;;;;4977256;28;20205;-68
2023/05/08 16:25:33;;;;;;;6.37;4.63;;;17.80;99.90;;;;;;4977396;28;20951;-68
2023/05/08 16:27:58;;;;;;;4.90;4.40;;;17.90;99.90;;;;;;4973457;28;20442;-66
2023/05/08 16:30:24;;;;;;;6.93;4.37;;;17.90;99.90;;;;;;4957685;29;20184;-66
2023/05/08 16:32:50;;;;;;;5.57;4.90;;;18.00;99.90;;;;;;4957304;29;20181;-66
2023/05/08 16:35:15;;;;;;;8.20;5.70;;;18.00;99.90;;;;;;4957018;28;20204;-66
2023/05/08 16:37:42;;;;;;;6.30;4.40;;;18.10;99.90;;;;;;4957509;29;20438;-64
2023/05/08 16:40:08;;;;;;;5.37;4.40;;;18.10;99.90;;;;;;4957874;28;20177;-66
2023/05/08 16:42:35;;;;;;;5.03;4.53;;;18.10;99.90;;;;;;4963799;28;20753;-67
2023/05/08 16:45:04;;;;;;;4.70;4.20;;;18.10;99.90;;;;;;4975117;28;20451;-67
2023/05/08 16:47:30;;;;;;;4.90;4.43;;;18.20;99.90;;;;;;4976962;28;20451;-69
2023/05/08 16:49:56;;;;;;;5.27;4.80;;;18.20;99.90;;;;;;4959925;28;20476;-66
2023/05/08 16:52:22;;;;;;;5.63;5.13;;;18.10;99.90;;;;;;4940183;29;20464;-67
2023/05/08 16:54:47;;;;;;;5.37;4.93;;;18.10;99.90;;;;;;4955405;28;20703;-67